sensor_id;sensor_type;location;lat;lon;timestamp;P1;durP1;ratioP1;P2;durP2;ratioP2
56307;SDS011;42217;50.422;7.210;2023-03-20T00:00:07;110.10;;;100.60;;
56307;SDS011;42217;50.422;7.210;2023-03-20T00:02:40;121.23;;;111.57;;
56307;SDS011;42217;50.422;7.210;2023-03-20T00:05:25;115.60;;;105.77;;
56307;SDS011;42217;50.422;7.210;2023-03-20T00:07:52;121.37;;;111.20;;
56307;SDS011;42217;50.422;7.210;2023-03-20T00:10:19;120.53;;;110.73;;
56307;SDS011;42217;50.422;7.210;2023-03-20T00:12:47;125.40;;;114.57;;
56307;SDS011;42217;50.422;7.210;2023-03-20T00:15:55;130.73;;;119.43;;
56307;SDS011;42217;50.422;7.210;2023-03-20T00:18:08;134.00;;;122.57;;
56307;SDS011;42217;50.422;7.210;2023-03-20T00:20:38;139.80;;;127.57;;
56307;SDS011;42217;50.422;7.210;2023-03-20T00:23:04;139.60;;;127.83;;
56307;SDS011;42217;50.422;7.210;2023-03-20T00:25:30;142.30;;;130.37;;
56307;SDS011;42217;50.422;7.210;2023-03-20T00:27:56;138.23;;;126.77;;
56307;SDS011;42217;50.422;7.210;2023-03-20T00:30:26;131.83;;;120.97;;
56307;SDS011;42217;50.422;7.210;2023-03-20T00:32:54;138.80;;;126.63;;
56307;SDS011;42217;50.422;7.210;2023-03-20T00:35:30;140.97;;;128.47;;
56307;SDS011;42217;50.422;7.210;2023-03-20T00:37:56;146.00;;;133.60;;
56307;SDS011;42217;50.422;7.210;2023-03-20T00:40:23;147.73;;;135.93;;
56307;SDS011;42217;50.422;7.210;2023-03-20T00:42:57;153.27;;;140.00;;
56307;SDS011;42217;50.422;7.210;2023-03-20T00:45:25;143.93;;;131.87;;
56307;SDS011;42217;50.422;7.210;2023-03-20T00:47:52;144.23;;;131.80;;
56307;SDS011;42217;50.422;7.210;2023-03-20T00:50:22;154.27;;;140.70;;
56307;SDS011;42217;50.422;7.210;2023-03-20T00:52:51;155.60;;;143.57;;
56307;SDS011;42217;50.422;7.210;2023-03-20T00:55:18;146.53;;;133.47;;
56307;SDS011;42217;50.422;7.210;2023-03-20T00:57:47;157.43;;;143.53;;
56307;SDS011;42217;50.422;7.210;2023-03-20T01:00:19;156.70;;;143.33;;
56307;SDS011;42217;50.422;7.210;2023-03-20T01:02:57;162.03;;;147.43;;
56307;SDS011;42217;50.422;7.210;2023-03-20T01:05:25;163.10;;;149.40;;
56307;SDS011;42217;50.422;7.210;2023-03-20T01:07:53;150.83;;;137.57;;
56307;SDS011;42217;50.422;7.210;2023-03-20T01:10:19;156.70;;;142.70;;
56307;SDS011;42217;50.422;7.210;2023-03-20T01:12:47;160.27;;;146.43;;
56307;SDS011;42217;50.422;7.210;2023-03-20T01:15:20;166.57;;;152.77;;
56307;SDS011;42217;50.422;7.210;2023-03-20T01:17:57;166.67;;;152.53;;
56307;SDS011;42217;50.422;7.210;2023-03-20T01:20:24;162.37;;;148.13;;
56307;SDS011;42217;50.422;7.210;2023-03-20T01:22:52;164.27;;;150.53;;
56307;SDS011;42217;50.422;7.210;2023-03-20T01:25:18;154.23;;;141.00;;
56307;SDS011;42217;50.422;7.210;2023-03-20T01:27:46;153.43;;;140.37;;
56307;SDS011;42217;50.422;7.210;2023-03-20T01:30:20;152.93;;;140.13;;
56307;SDS011;42217;50.422;7.210;2023-03-20T01:32:51;161.23;;;148.27;;
56307;SDS011;42217;50.422;7.210;2023-03-20T01:35:19;166.20;;;153.10;;
56307;SDS011;42217;50.422;7.210;2023-03-20T01:37:46;157.37;;;144.50;;
56307;SDS011;42217;50.422;7.210;2023-03-20T01:40:25;154.23;;;141.93;;
56307;SDS011;42217;50.422;7.210;2023-03-20T01:43:00;155.37;;;142.80;;
56307;SDS011;42217;50.422;7.210;2023-03-20T01:45:31;155.10;;;143.20;;
56307;SDS011;42217;50.422;7.210;2023-03-20T01:48:01;159.13;;;145.82;;
56307;SDS011;42217;50.422;7.210;2023-03-20T01:50:38;157.23;;;145.00;;
56307;SDS011;42217;50.422;7.210;2023-03-20T01:55:33;147.53;;;136.20;;
56307;SDS011;42217;50.422;7.210;2023-03-20T01:58:02;153.10;;;141.57;;
56307;SDS011;42217;50.422;7.210;2023-03-20T02:00:32;162.83;;;150.57;;
56307;SDS011;42217;50.422;7.210;2023-03-20T02:02:58;156.17;;;144.30;;
56307;SDS011;42217;50.422;7.210;2023-03-20T02:05:24;156.63;;;144.20;;
56307;SDS011;42217;50.422;7.210;2023-03-20T02:10:35;148.20;;;136.77;;
56307;SDS011;42217;50.422;7.210;2023-03-20T02:13:02;149.63;;;138.57;;
56307;SDS011;42217;50.422;7.210;2023-03-20T02:15:29;153.53;;;141.53;;
56307;SDS011;42217;50.422;7.210;2023-03-20T02:17:55;137.57;;;126.90;;
56307;SDS011;42217;50.422;7.210;2023-03-20T02:46:05;139.00;;;127.50;;
56307;SDS011;42217;50.422;7.210;2023-03-20T02:54:07;151.90;;;140.13;;
56307;SDS011;42217;50.422;7.210;2023-03-20T02:57:07;145.30;;;133.23;;
56307;SDS011;42217;50.422;7.210;2023-03-20T03:02:14;152.13;;;139.27;;
56307;SDS011;42217;50.422;7.210;2023-03-20T03:04:51;152.07;;;139.00;;
56307;SDS011;42217;50.422;7.210;2023-03-20T03:07:24;148.30;;;136.60;;
56307;SDS011;42217;50.422;7.210;2023-03-20T03:09:55;146.43;;;134.37;;
56307;SDS011;42217;50.422;7.210;2023-03-20T03:12:33;152.87;;;140.77;;
56307;SDS011;42217;50.422;7.210;2023-03-20T03:15:17;158.73;;;145.33;;
56307;SDS011;42217;50.422;7.210;2023-03-20T03:20:30;146.40;;;134.77;;
56307;SDS011;42217;50.422;7.210;2023-03-20T03:22:59;150.20;;;138.33;;
56307;SDS011;42217;50.422;7.210;2023-03-20T03:25:26;146.57;;;133.23;;
56307;SDS011;42217;50.422;7.210;2023-03-20T03:30:34;151.67;;;139.23;;
56307;SDS011;42217;50.422;7.210;2023-03-20T03:33:13;148.23;;;136.50;;
56307;SDS011;42217;50.422;7.210;2023-03-20T03:35:45;149.60;;;137.38;;
56307;SDS011;42217;50.422;7.210;2023-03-20T03:44:19;147.87;;;136.23;;
56307;SDS011;42217;50.422;7.210;2023-03-20T03:49:29;144.50;;;133.20;;
56307;SDS011;42217;50.422;7.210;2023-03-20T03:52:00;150.03;;;138.10;;
56307;SDS011;42217;50.422;7.210;2023-03-20T03:54:32;157.73;;;145.77;;
56307;SDS011;42217;50.422;7.210;2023-03-20T03:57:04;148.83;;;136.90;;
56307;SDS011;42217;50.422;7.210;2023-03-20T03:59:39;143.50;;;131.33;;
56307;SDS011;42217;50.422;7.210;2023-03-20T04:02:08;154.73;;;142.17;;
56307;SDS011;42217;50.422;7.210;2023-03-20T04:04:35;145.47;;;133.63;;
56307;SDS011;42217;50.422;7.210;2023-03-20T04:07:06;147.67;;;136.17;;
56307;SDS011;42217;50.422;7.210;2023-03-20T04:09:32;143.20;;;132.17;;
56307;SDS011;42217;50.422;7.210;2023-03-20T04:11:58;145.00;;;133.87;;
56307;SDS011;42217;50.422;7.210;2023-03-20T04:14:24;145.47;;;134.17;;
56307;SDS011;42217;50.422;7.210;2023-03-20T04:16:51;144.37;;;132.23;;
56307;SDS011;42217;50.422;7.210;2023-03-20T04:19:17;149.07;;;137.73;;
56307;SDS011;42217;50.422;7.210;2023-03-20T04:21:42;142.13;;;130.10;;
56307;SDS011;42217;50.422;7.210;2023-03-20T04:24:09;152.67;;;141.27;;
56307;SDS011;42217;50.422;7.210;2023-03-20T04:26:36;153.57;;;141.67;;
56307;SDS011;42217;50.422;7.210;2023-03-20T04:29:04;151.33;;;139.10;;
56307;SDS011;42217;50.422;7.210;2023-03-20T04:31:30;145.53;;;134.30;;
56307;SDS011;42217;50.422;7.210;2023-03-20T04:33:56;146.23;;;134.03;;
56307;SDS011;42217;50.422;7.210;2023-03-20T04:36:22;144.03;;;132.43;;
56307;SDS011;42217;50.422;7.210;2023-03-20T04:38:48;147.10;;;135.40;;
56307;SDS011;42217;50.422;7.210;2023-03-20T04:41:14;156.23;;;143.43;;
56307;SDS011;42217;50.422;7.210;2023-03-20T04:43:40;146.63;;;134.63;;
56307;SDS011;42217;50.422;7.210;2023-03-20T04:46:06;159.23;;;147.00;;
56307;SDS011;42217;50.422;7.210;2023-03-20T04:48:31;146.97;;;136.13;;
56307;SDS011;42217;50.422;7.210;2023-03-20T04:50:57;148.43;;;137.17;;
56307;SDS011;42217;50.422;7.210;2023-03-20T04:53:23;149.63;;;137.60;;
56307;SDS011;42217;50.422;7.210;2023-03-20T04:55:48;144.57;;;133.20;;
56307;SDS011;42217;50.422;7.210;2023-03-20T04:58:15;148.87;;;136.87;;
56307;SDS011;42217;50.422;7.210;2023-03-20T05:00:41;149.07;;;137.03;;
56307;SDS011;42217;50.422;7.210;2023-03-20T05:03:08;151.00;;;139.93;;
56307;SDS011;42217;50.422;7.210;2023-03-20T05:05:33;155.83;;;143.83;;
56307;SDS011;42217;50.422;7.210;2023-03-20T05:08:02;152.50;;;140.53;;
56307;SDS011;42217;50.422;7.210;2023-03-20T05:10:29;145.23;;;133.57;;
56307;SDS011;42217;50.422;7.210;2023-03-20T05:12:55;146.53;;;134.13;;
56307;SDS011;42217;50.422;7.210;2023-03-20T05:15:21;152.83;;;141.60;;
56307;SDS011;42217;50.422;7.210;2023-03-20T05:17:47;155.97;;;142.90;;
56307;SDS011;42217;50.422;7.210;2023-03-20T05:20:13;151.70;;;139.03;;
56307;SDS011;42217;50.422;7.210;2023-03-20T05:22:39;149.07;;;136.63;;
56307;SDS011;42217;50.422;7.210;2023-03-20T05:25:05;150.47;;;139.07;;
56307;SDS011;42217;50.422;7.210;2023-03-20T05:27:32;145.60;;;134.13;;
56307;SDS011;42217;50.422;7.210;2023-03-20T05:29:57;151.50;;;140.30;;
56307;SDS011;42217;50.422;7.210;2023-03-20T05:32:23;142.17;;;130.30;;
56307;SDS011;42217;50.422;7.210;2023-03-20T05:34:48;155.57;;;143.57;;
56307;SDS011;42217;50.422;7.210;2023-03-20T05:37:14;156.80;;;144.03;;
56307;SDS011;42217;50.422;7.210;2023-03-20T05:39:40;150.40;;;137.63;;
56307;SDS011;42217;50.422;7.210;2023-03-20T05:42:06;155.00;;;142.30;;
56307;SDS011;42217;50.422;7.210;2023-03-20T05:44:31;155.37;;;141.57;;
56307;SDS011;42217;50.422;7.210;2023-03-20T05:46:57;157.73;;;143.87;;
56307;SDS011;42217;50.422;7.210;2023-03-20T05:49:22;163.20;;;149.13;;
56307;SDS011;42217;50.422;7.210;2023-03-20T05:51:48;165.50;;;150.90;;
56307;SDS011;42217;50.422;7.210;2023-03-20T05:54:14;156.33;;;143.63;;
56307;SDS011;42217;50.422;7.210;2023-03-20T05:56:40;147.40;;;134.73;;
56307;SDS011;42217;50.422;7.210;2023-03-20T05:59:06;146.90;;;133.43;;
56307;SDS011;42217;50.422;7.210;2023-03-20T06:01:31;144.53;;;131.87;;
56307;SDS011;42217;50.422;7.210;2023-03-20T06:03:57;150.97;;;138.60;;
56307;SDS011;42217;50.422;7.210;2023-03-20T06:06:23;150.17;;;138.47;;
56307;SDS011;42217;50.422;7.210;2023-03-20T06:08:48;145.07;;;132.80;;
56307;SDS011;42217;50.422;7.210;2023-03-20T06:11:14;149.77;;;137.97;;
56307;SDS011;42217;50.422;7.210;2023-03-20T06:13:40;148.40;;;136.23;;
56307;SDS011;42217;50.422;7.210;2023-03-20T06:16:06;145.33;;;132.73;;
56307;SDS011;42217;50.422;7.210;2023-03-20T06:18:32;146.37;;;134.67;;
56307;SDS011;42217;50.422;7.210;2023-03-20T06:20:58;161.57;;;148.10;;
56307;SDS011;42217;50.422;7.210;2023-03-20T06:23:23;154.20;;;142.20;;
56307;SDS011;42217;50.422;7.210;2023-03-20T06:25:52;163.13;;;149.63;;
56307;SDS011;42217;50.422;7.210;2023-03-20T06:28:17;162.93;;;149.13;;
56307;SDS011;42217;50.422;7.210;2023-03-20T06:30:43;155.77;;;143.23;;
56307;SDS011;42217;50.422;7.210;2023-03-20T06:33:09;153.73;;;142.10;;
56307;SDS011;42217;50.422;7.210;2023-03-20T06:35:35;150.03;;;138.17;;
56307;SDS011;42217;50.422;7.210;2023-03-20T06:38:01;161.63;;;148.23;;
56307;SDS011;42217;50.422;7.210;2023-03-20T06:40:27;157.27;;;145.10;;
56307;SDS011;42217;50.422;7.210;2023-03-20T06:42:53;155.20;;;143.20;;
56307;SDS011;42217;50.422;7.210;2023-03-20T06:45:19;153.37;;;141.80;;
56307;SDS011;42217;50.422;7.210;2023-03-20T06:47:46;152.40;;;140.43;;
56307;SDS011;42217;50.422;7.210;2023-03-20T06:50:12;146.97;;;136.17;;
56307;SDS011;42217;50.422;7.210;2023-03-20T06:52:38;154.17;;;143.23;;
56307;SDS011;42217;50.422;7.210;2023-03-20T06:55:05;145.97;;;135.73;;
56307;SDS011;42217;50.422;7.210;2023-03-20T06:57:31;142.07;;;132.27;;
56307;SDS011;42217;50.422;7.210;2023-03-20T06:59:57;133.20;;;123.73;;
56307;SDS011;42217;50.422;7.210;2023-03-20T07:02:23;137.17;;;128.00;;
56307;SDS011;42217;50.422;7.210;2023-03-20T07:04:49;141.53;;;132.93;;
56307;SDS011;42217;50.422;7.210;2023-03-20T07:07:15;131.10;;;123.20;;
56307;SDS011;42217;50.422;7.210;2023-03-20T07:09:41;133.73;;;125.47;;
56307;SDS011;42217;50.422;7.210;2023-03-20T07:12:11;120.07;;;112.93;;
56307;SDS011;42217;50.422;7.210;2023-03-20T07:14:44;116.53;;;109.67;;
56307;SDS011;42217;50.422;7.210;2023-03-20T07:17:13;112.77;;;106.10;;
56307;SDS011;42217;50.422;7.210;2023-03-20T07:19:38;112.77;;;106.23;;
56307;SDS011;42217;50.422;7.210;2023-03-20T07:22:05;106.27;;;100.43;;
56307;SDS011;42217;50.422;7.210;2023-03-20T07:24:33;102.50;;;96.70;;
56307;SDS011;42217;50.422;7.210;2023-03-20T07:26:59;103.50;;;97.40;;
56307;SDS011;42217;50.422;7.210;2023-03-20T07:29:25;99.30;;;93.67;;
56307;SDS011;42217;50.422;7.210;2023-03-20T07:31:51;99.00;;;93.57;;
56307;SDS011;42217;50.422;7.210;2023-03-20T07:34:17;104.30;;;98.43;;
56307;SDS011;42217;50.422;7.210;2023-03-20T07:36:42;103.83;;;98.40;;
56307;SDS011;42217;50.422;7.210;2023-03-20T07:39:08;101.57;;;95.90;;
56307;SDS011;42217;50.422;7.210;2023-03-20T07:41:35;93.60;;;88.43;;
56307;SDS011;42217;50.422;7.210;2023-03-20T07:44:01;98.80;;;93.43;;
56307;SDS011;42217;50.422;7.210;2023-03-20T07:46:27;100.70;;;95.10;;
56307;SDS011;42217;50.422;7.210;2023-03-20T07:48:52;96.87;;;91.23;;
56307;SDS011;42217;50.422;7.210;2023-03-20T07:51:18;92.03;;;86.90;;
56307;SDS011;42217;50.422;7.210;2023-03-20T07:53:44;98.23;;;92.97;;
56307;SDS011;42217;50.422;7.210;2023-03-20T07:56:09;95.07;;;89.87;;
56307;SDS011;42217;50.422;7.210;2023-03-20T07:58:35;94.63;;;89.40;;
56307;SDS011;42217;50.422;7.210;2023-03-20T08:01:01;93.60;;;88.33;;
56307;SDS011;42217;50.422;7.210;2023-03-20T08:03:27;93.47;;;88.57;;
56307;SDS011;42217;50.422;7.210;2023-03-20T08:05:53;83.93;;;79.50;;
56307;SDS011;42217;50.422;7.210;2023-03-20T08:08:19;78.43;;;74.13;;
56307;SDS011;42217;50.422;7.210;2023-03-20T08:10:45;80.33;;;75.80;;
56307;SDS011;42217;50.422;7.210;2023-03-20T08:13:12;81.50;;;77.07;;
56307;SDS011;42217;50.422;7.210;2023-03-20T08:15:38;76.10;;;71.90;;
56307;SDS011;42217;50.422;7.210;2023-03-20T08:18:03;82.43;;;77.97;;
56307;SDS011;42217;50.422;7.210;2023-03-20T08:20:29;77.13;;;73.13;;
56307;SDS011;42217;50.422;7.210;2023-03-20T08:22:55;68.47;;;64.77;;
56307;SDS011;42217;50.422;7.210;2023-03-20T08:25:21;79.87;;;75.50;;
56307;SDS011;42217;50.422;7.210;2023-03-20T08:27:47;91.80;;;86.73;;
56307;SDS011;42217;50.422;7.210;2023-03-20T08:30:13;109.27;;;103.77;;
56307;SDS011;42217;50.422;7.210;2023-03-20T08:32:40;73.57;;;69.20;;
56307;SDS011;42217;50.422;7.210;2023-03-20T08:35:06;75.90;;;71.57;;
56307;SDS011;42217;50.422;7.210;2023-03-20T08:37:33;68.20;;;64.30;;
56307;SDS011;42217;50.422;7.210;2023-03-20T08:40:02;107.37;;;101.80;;
56307;SDS011;42217;50.422;7.210;2023-03-20T08:42:28;114.30;;;108.60;;
56307;SDS011;42217;50.422;7.210;2023-03-20T08:44:54;74.00;;;69.83;;
56307;SDS011;42217;50.422;7.210;2023-03-20T08:47:20;79.63;;;75.40;;
56307;SDS011;42217;50.422;7.210;2023-03-20T08:49:46;97.23;;;92.10;;
56307;SDS011;42217;50.422;7.210;2023-03-20T08:52:12;81.87;;;77.23;;
56307;SDS011;42217;50.422;7.210;2023-03-20T08:54:37;70.67;;;66.80;;
56307;SDS011;42217;50.422;7.210;2023-03-20T08:57:03;79.43;;;75.23;;
56307;SDS011;42217;50.422;7.210;2023-03-20T08:59:29;72.63;;;68.93;;
56307;SDS011;42217;50.422;7.210;2023-03-20T09:01:55;68.47;;;64.43;;
56307;SDS011;42217;50.422;7.210;2023-03-20T09:04:21;68.47;;;64.20;;
56307;SDS011;42217;50.422;7.210;2023-03-20T09:06:46;69.30;;;65.20;;
56307;SDS011;42217;50.422;7.210;2023-03-20T09:09:13;80.63;;;76.47;;
56307;SDS011;42217;50.422;7.210;2023-03-20T09:11:40;69.53;;;65.47;;
56307;SDS011;42217;50.422;7.210;2023-03-20T09:14:05;67.73;;;64.07;;
56307;SDS011;42217;50.422;7.210;2023-03-20T09:16:31;74.10;;;69.80;;
56307;SDS011;42217;50.422;7.210;2023-03-20T09:18:57;63.27;;;59.50;;
56307;SDS011;42217;50.422;7.210;2023-03-20T09:21:23;64.17;;;60.57;;
56307;SDS011;42217;50.422;7.210;2023-03-20T09:23:48;64.57;;;61.17;;
56307;SDS011;42217;50.422;7.210;2023-03-20T09:26:14;71.67;;;67.63;;
56307;SDS011;42217;50.422;7.210;2023-03-20T09:28:40;67.37;;;63.37;;
56307;SDS011;42217;50.422;7.210;2023-03-20T09:31:06;130.07;;;123.73;;
56307;SDS011;42217;50.422;7.210;2023-03-20T09:33:32;61.50;;;58.07;;
56307;SDS011;42217;50.422;7.210;2023-03-20T09:35:57;59.57;;;56.17;;
56307;SDS011;42217;50.422;7.210;2023-03-20T09:38:23;100.33;;;95.10;;
56307;SDS011;42217;50.422;7.210;2023-03-20T09:40:50;61.40;;;58.40;;
56307;SDS011;42217;50.422;7.210;2023-03-20T09:52:23;58.00;;;54.93;;
56307;SDS011;42217;50.422;7.210;2023-03-20T09:55:11;122.77;;;116.57;;
56307;SDS011;42217;50.422;7.210;2023-03-20T09:57:48;78.77;;;74.77;;
56307;SDS011;42217;50.422;7.210;2023-03-20T10:00:21;65.55;;;62.22;;
56307;SDS011;42217;50.422;7.210;2023-03-20T10:03:00;57.73;;;54.53;;
56307;SDS011;42217;50.422;7.210;2023-03-20T10:05:43;85.60;;;81.47;;
56307;SDS011;42217;50.422;7.210;2023-03-20T10:08:12;76.27;;;72.40;;
56307;SDS011;42217;50.422;7.210;2023-03-20T10:19:56;55.13;;;52.27;;
56307;SDS011;42217;50.422;7.210;2023-03-20T10:25:07;69.27;;;65.83;;
56307;SDS011;42217;50.422;7.210;2023-03-20T10:28:00;55.70;;;52.90;;
56307;SDS011;42217;50.422;7.210;2023-03-20T10:41:08;70.57;;;66.90;;
56307;SDS011;42217;50.422;7.210;2023-03-20T10:43:50;90.57;;;86.23;;
56307;SDS011;42217;50.422;7.210;2023-03-20T10:46:20;58.70;;;55.73;;
56307;SDS011;42217;50.422;7.210;2023-03-20T10:51:51;76.97;;;73.33;;
56307;SDS011;42217;50.422;7.210;2023-03-20T10:56:46;67.77;;;64.33;;
56307;SDS011;42217;50.422;7.210;2023-03-20T10:59:24;63.63;;;60.43;;
56307;SDS011;42217;50.422;7.210;2023-03-20T11:01:58;53.93;;;51.23;;
56307;SDS011;42217;50.422;7.210;2023-03-20T11:04:24;66.87;;;63.67;;
56307;SDS011;42217;50.422;7.210;2023-03-20T11:09:34;46.70;;;44.10;;
56307;SDS011;42217;50.422;7.210;2023-03-20T11:12:00;56.80;;;53.93;;
56307;SDS011;42217;50.422;7.210;2023-03-20T11:14:31;47.60;;;45.17;;
56307;SDS011;42217;50.422;7.210;2023-03-20T11:19:27;50.27;;;47.73;;
56307;SDS011;42217;50.422;7.210;2023-03-20T11:21:59;53.47;;;50.47;;
56307;SDS011;42217;50.422;7.210;2023-03-20T11:24:42;47.97;;;45.67;;
56307;SDS011;42217;50.422;7.210;2023-03-20T11:27:12;80.33;;;76.57;;
56307;SDS011;42217;50.422;7.210;2023-03-20T11:32:21;44.10;;;41.90;;
56307;SDS011;42217;50.422;7.210;2023-03-20T11:34:53;45.10;;;42.80;;
56307;SDS011;42217;50.422;7.210;2023-03-20T11:37:24;48.28;;;45.67;;
56307;SDS011;42217;50.422;7.210;2023-03-20T11:39:59;46.60;;;44.35;;
56307;SDS011;42217;50.422;7.210;2023-03-20T11:42:50;50.47;;;48.10;;
56307;SDS011;42217;50.422;7.210;2023-03-20T11:45:17;47.45;;;45.10;;
56307;SDS011;42217;50.422;7.210;2023-03-20T11:47:47;48.13;;;45.72;;
56307;SDS011;42217;50.422;7.210;2023-03-20T11:50:35;45.92;;;43.72;;
56307;SDS011;42217;50.422;7.210;2023-03-20T11:56:03;50.70;;;47.90;;
56307;SDS011;42217;50.422;7.210;2023-03-20T11:58:45;52.35;;;49.75;;
56307;SDS011;42217;50.422;7.210;2023-03-20T12:01:17;108.15;;;102.90;;
56307;SDS011;42217;50.422;7.210;2023-03-20T12:03:49;58.38;;;55.35;;
56307;SDS011;42217;50.422;7.210;2023-03-20T12:06:26;52.80;;;49.77;;
56307;SDS011;42217;50.422;7.210;2023-03-20T12:09:03;56.80;;;53.67;;
56307;SDS011;42217;50.422;7.210;2023-03-20T12:14:25;53.30;;;50.33;;
56307;SDS011;42217;50.422;7.210;2023-03-20T12:16:55;70.87;;;67.37;;
56307;SDS011;42217;50.422;7.210;2023-03-20T12:19:29;60.73;;;57.80;;
56307;SDS011;42217;50.422;7.210;2023-03-20T12:22:06;52.30;;;49.53;;
56307;SDS011;42217;50.422;7.210;2023-03-20T12:24:42;57.60;;;54.55;;
56307;SDS011;42217;50.422;7.210;2023-03-20T12:27:37;66.43;;;62.87;;
56307;SDS011;42217;50.422;7.210;2023-03-20T12:30:09;56.10;;;53.07;;
56307;SDS011;42217;50.422;7.210;2023-03-20T12:32:47;67.30;;;64.10;;
56307;SDS011;42217;50.422;7.210;2023-03-20T12:35:27;68.60;;;65.10;;
56307;SDS011;42217;50.422;7.210;2023-03-20T12:37:55;102.90;;;97.97;;
56307;SDS011;42217;50.422;7.210;2023-03-20T12:40:24;57.27;;;54.13;;
56307;SDS011;42217;50.422;7.210;2023-03-20T12:43:12;56.17;;;53.07;;
56307;SDS011;42217;50.422;7.210;2023-03-20T12:45:53;53.47;;;50.53;;
56307;SDS011;42217;50.422;7.210;2023-03-20T12:48:37;50.97;;;48.37;;
56307;SDS011;42217;50.422;7.210;2023-03-20T12:51:10;94.63;;;89.40;;
56307;SDS011;42217;50.422;7.210;2023-03-20T12:57:14;56.77;;;53.67;;
56307;SDS011;42217;50.422;7.210;2023-03-20T13:11:36;84.53;;;80.43;;
56307;SDS011;42217;50.422;7.210;2023-03-20T13:14:01;71.73;;;68.23;;
56307;SDS011;42217;50.422;7.210;2023-03-20T13:19:20;74.37;;;70.67;;
56307;SDS011;42217;50.422;7.210;2023-03-20T13:22:06;50.47;;;48.00;;
56307;SDS011;42217;50.422;7.210;2023-03-20T13:25:07;59.10;;;55.60;;
56307;SDS011;42217;50.422;7.210;2023-03-20T13:27:51;68.47;;;64.80;;
56307;SDS011;42217;50.422;7.210;2023-03-20T13:30:47;67.30;;;64.03;;
56307;SDS011;42217;50.422;7.210;2023-03-20T13:38:34;65.67;;;62.37;;
56307;SDS011;42217;50.422;7.210;2023-03-20T13:41:03;58.10;;;55.22;;
56307;SDS011;42217;50.422;7.210;2023-03-20T13:43:46;77.53;;;73.63;;
56307;SDS011;42217;50.422;7.210;2023-03-20T13:46:23;66.23;;;62.23;;
56307;SDS011;42217;50.422;7.210;2023-03-20T13:48:52;60.60;;;57.43;;
56307;SDS011;42217;50.422;7.210;2023-03-20T13:56:36;56.80;;;53.93;;
56307;SDS011;42217;50.422;7.210;2023-03-20T14:04:23;104.17;;;99.33;;
56307;SDS011;42217;50.422;7.210;2023-03-20T14:09:28;60.40;;;57.17;;
56307;SDS011;42217;50.422;7.210;2023-03-20T14:12:08;56.63;;;53.50;;
56307;SDS011;42217;50.422;7.210;2023-03-20T14:17:26;79.57;;;75.50;;
56307;SDS011;42217;50.422;7.210;2023-03-20T14:19:54;96.30;;;91.57;;
56307;SDS011;42217;50.422;7.210;2023-03-20T14:22:35;94.93;;;90.43;;
56307;SDS011;42217;50.422;7.210;2023-03-20T14:25:06;113.30;;;107.33;;
56307;SDS011;42217;50.422;7.210;2023-03-20T14:30:47;61.17;;;58.17;;
56307;SDS011;42217;50.422;7.210;2023-03-20T14:35:50;60.50;;;57.20;;
56307;SDS011;42217;50.422;7.210;2023-03-20T14:38:43;57.33;;;54.50;;
56307;SDS011;42217;50.422;7.210;2023-03-20T14:41:55;60.27;;;57.17;;
56307;SDS011;42217;50.422;7.210;2023-03-20T14:47:25;52.27;;;49.47;;
56307;SDS011;42217;50.422;7.210;2023-03-20T15:04:07;55.20;;;52.30;;
56307;SDS011;42217;50.422;7.210;2023-03-20T15:06:47;51.87;;;49.30;;
56307;SDS011;42217;50.422;7.210;2023-03-20T15:09:17;61.10;;;58.07;;
56307;SDS011;42217;50.422;7.210;2023-03-20T15:11:46;56.37;;;53.63;;
56307;SDS011;42217;50.422;7.210;2023-03-20T15:14:15;57.37;;;54.53;;
56307;SDS011;42217;50.422;7.210;2023-03-20T15:16:45;76.03;;;72.47;;
56307;SDS011;42217;50.422;7.210;2023-03-20T15:19:17;54.60;;;51.60;;
56307;SDS011;42217;50.422;7.210;2023-03-20T15:21:46;57.78;;;54.47;;
56307;SDS011;42217;50.422;7.210;2023-03-20T15:24:19;54.40;;;51.80;;
56307;SDS011;42217;50.422;7.210;2023-03-20T15:26:45;56.70;;;53.27;;
56307;SDS011;42217;50.422;7.210;2023-03-20T15:29:12;64.93;;;61.83;;
56307;SDS011;42217;50.422;7.210;2023-03-20T15:31:41;63.57;;;60.27;;
56307;SDS011;42217;50.422;7.210;2023-03-20T15:34:18;112.77;;;107.03;;
56307;SDS011;42217;50.422;7.210;2023-03-20T15:36:54;71.73;;;68.07;;
56307;SDS011;42217;50.422;7.210;2023-03-20T15:39:26;63.77;;;60.67;;
56307;SDS011;42217;50.422;7.210;2023-03-20T15:42:12;63.93;;;60.93;;
56307;SDS011;42217;50.422;7.210;2023-03-20T15:44:40;78.70;;;74.73;;
56307;SDS011;42217;50.422;7.210;2023-03-20T15:49:35;79.03;;;75.20;;
56307;SDS011;42217;50.422;7.210;2023-03-20T15:52:04;108.90;;;103.60;;
56307;SDS011;42217;50.422;7.210;2023-03-20T15:54:45;77.70;;;73.40;;
56307;SDS011;42217;50.422;7.210;2023-03-20T15:57:15;88.50;;;84.07;;
56307;SDS011;42217;50.422;7.210;2023-03-20T15:59:50;74.37;;;70.50;;
56307;SDS011;42217;50.422;7.210;2023-03-20T16:02:16;54.87;;;51.97;;
56307;SDS011;42217;50.422;7.210;2023-03-20T16:04:44;74.03;;;70.30;;
56307;SDS011;42217;50.422;7.210;2023-03-20T16:07:28;84.60;;;80.30;;
56307;SDS011;42217;50.422;7.210;2023-03-20T16:09:56;55.77;;;52.40;;
56307;SDS011;42217;50.422;7.210;2023-03-20T16:12:22;52.73;;;50.23;;
56307;SDS011;42217;50.422;7.210;2023-03-20T16:14:50;58.03;;;55.23;;
56307;SDS011;42217;50.422;7.210;2023-03-20T16:17:17;107.40;;;102.30;;
56307;SDS011;42217;50.422;7.210;2023-03-20T16:19:45;59.33;;;56.20;;
56307;SDS011;42217;50.422;7.210;2023-03-20T16:22:32;54.50;;;51.40;;
56307;SDS011;42217;50.422;7.210;2023-03-20T16:24:58;57.03;;;54.23;;
56307;SDS011;42217;50.422;7.210;2023-03-20T16:27:27;54.63;;;51.13;;
56307;SDS011;42217;50.422;7.210;2023-03-20T16:29:54;57.00;;;53.77;;
56307;SDS011;42217;50.422;7.210;2023-03-20T16:34:56;54.90;;;52.17;;
56307;SDS011;42217;50.422;7.210;2023-03-20T16:37:27;55.57;;;52.83;;
56307;SDS011;42217;50.422;7.210;2023-03-20T16:40:02;59.83;;;56.70;;
56307;SDS011;42217;50.422;7.210;2023-03-20T16:42:40;52.40;;;49.40;;
56307;SDS011;42217;50.422;7.210;2023-03-20T16:45:14;54.37;;;51.13;;
56307;SDS011;42217;50.422;7.210;2023-03-20T16:50:38;58.43;;;54.73;;
56307;SDS011;42217;50.422;7.210;2023-03-20T16:53:15;54.23;;;51.27;;
56307;SDS011;42217;50.422;7.210;2023-03-20T16:55:47;55.23;;;52.10;;
56307;SDS011;42217;50.422;7.210;2023-03-20T16:58:17;51.85;;;48.70;;
56307;SDS011;42217;50.422;7.210;2023-03-20T17:06:26;56.47;;;53.23;;
56307;SDS011;42217;50.422;7.210;2023-03-20T17:09:00;55.77;;;52.20;;
56307;SDS011;42217;50.422;7.210;2023-03-20T17:11:44;53.95;;;51.13;;
56307;SDS011;42217;50.422;7.210;2023-03-20T17:14:13;57.67;;;54.27;;
56307;SDS011;42217;50.422;7.210;2023-03-20T17:16:39;52.43;;;49.83;;
56307;SDS011;42217;50.422;7.210;2023-03-20T17:19:06;62.17;;;59.03;;
56307;SDS011;42217;50.422;7.210;2023-03-20T17:21:43;51.33;;;48.43;;
56307;SDS011;42217;50.422;7.210;2023-03-20T17:24:10;59.77;;;56.47;;